WMKK - WMKN

Guest
Details From WMKK - Kuala Lumpur Intl - Sepang
To WMKN - Kuala Terengganu Sultan Mahmud
Flight Number -
Tags generated
Created
Modified
Stats Distance 179 nm / 332 km
Max Altitude 17,000 ft / 5,182 m
Waypoints 4
Social Downloads 0
Likes 0
Share VATSIM

Download

Looking for another format? Having issues loading an existing format? Contact us
Advertisement - Login to hide

Notes

Basic altitude profile: - Ascent Rate: 2500ft/min - Ascent Speed: 250kts - Cruise Altitude: 35000ft - Cruise Speed: 420kts - Descent Rate: 1500ft/min - Descent Speed: 250kts Options: - Use NATs: yes - Use PACOTS: yes - Use low airways: yes - Use high airways: yes

Route

WMKK MATSU R208 GUNBO WMKN

ID Type Via Altitude Latitude Longitude Leg Dist Tot Dist Heading (true) Name
O WMKK APT - 0 ft / 0 m 2.74558˚ 101.70991˚ - 0 nm - Kuala Lumpur Intl - Sepang
MATSU FIX - 17,000 ft / 5,182 m 3.43722˚ 102.10389˚ 47 nm 47 nm 30° / 30° -
GUNBO FIX R208 (AWY-LO) 8,500 ft / 2,591 m 4.86083˚ 102.83389˚ 96 nm 143 nm 27° / 27° -
O WMKN APT - 0 ft / 0 m 5.38264˚ 103.10336˚ 35 nm 179 nm 27° / 27° Kuala Terengganu Sultan Mahmud

Altitude Profile

Weather

Temperature
Clouds and Precipitation
Forecast for 2016-12-03 06:00 UTC. Updated an hour ago
Winds

WMKK

Details ICAO WMKK (KUL)
Name Kuala Lumpur Intl - Sepang
Region Malaysia (Peninsular Malaysia)
Timezone Asia/Kuala_Lumpur (UTC+8.0)
Stats Elevation 70 ft / 21 m (AMSL)
Location 2.745578° 101.709913°
Runways 2
Magnetic Variation 0.009° W

METAR

WMKK 030200Z 02003KT 9999 FEW017CB SCT140 BKN280 27/25 Q1010 NOSIG

Decode

TAF

TAF WMKK 022300Z 0300/0406 33005KT 9000 FEW017CB SCT140 BKN280 TEMPO 0300/0304 4000 TSRA FEW015CB SCT018 PROB30 TEMPO 0307/0311 4000 TSRA FEW015CB SCT018

Decode

Departure Runways

ID Width Length Bearing (true) Bearing (mag) Surface Threshold Offset Overrun Length
14L 197 ft / 60 m 13,577 ft / 4,138 m 146.13° 146.14° Asphalt 500 ft / 152 m 0 ft / 0 m
14R 197 ft / 60 m 13,337 ft / 4,065 m 146.22° 146.23° Asphalt 500 ft / 152 m 0 ft / 0 m
32L 197 ft / 60 m 13,337 ft / 4,065 m 326.22° 326.23° Asphalt 500 ft / 152 m 0 ft / 0 m
32R 197 ft / 60 m 13,577 ft / 4,138 m 326.13° 326.14° Asphalt 500 ft / 152 m 0 ft / 0 m

WMKN

Details ICAO WMKN (TGG)
Name Kuala Terengganu Sultan Mahmud
Region Malaysia (Peninsular Malaysia)
Timezone Asia/Kuala_Lumpur (UTC+8.0)
Stats Elevation 21 ft / 6 m (AMSL)
Location 5.382638° 103.103361°
Runways 1
Magnetic Variation 0.035° W

METAR

WMKN 030200Z 17001KT 8000 -RA FEW005 SCT022 OVC160 25/24 Q1010

Decode

TAF

Not found

Destination Runways

ID Width Length Bearing (true) Bearing (mag) Surface Threshold Offset Overrun Length
04 150 ft / 46 m 6,580 ft / 2,006 m 44.37° 44.41° Asphalt 0 ft / 0 m 230 ft / 70 m
22 150 ft / 46 m 6,580 ft / 2,006 m 224.37° 224.41° Asphalt 0 ft / 0 m 218 ft / 66 m

Popular Alternatives